sensor_id;sensor_type;location;lat;lon;timestamp;temperature;humidity
4908;DHT22;2469;51.540;7.364;2022-09-12T00:01:02;19.10;94.50
4908;DHT22;2469;51.540;7.364;2022-09-12T00:03:31;19.10;95.40
4908;DHT22;2469;51.540;7.364;2022-09-12T00:05:59;19.10;95.50
4908;DHT22;2469;51.540;7.364;2022-09-12T00:08:28;19.00;95.00
4908;DHT22;2469;51.540;7.364;2022-09-12T00:10:56;18.80;94.00
4908;DHT22;2469;51.540;7.364;2022-09-12T00:13:24;18.80;94.50
4908;DHT22;2469;51.540;7.364;2022-09-12T00:15:51;18.70;94.00
4908;DHT22;2469;51.540;7.364;2022-09-12T00:18:19;18.40;93.40
4908;DHT22;2469;51.540;7.364;2022-09-12T00:20:47;18.30;94.20
4908;DHT22;2469;51.540;7.364;2022-09-12T00:23:15;18.40;94.80
4908;DHT22;2469;51.540;7.364;2022-09-12T00:25:46;18.40;95.40
4908;DHT22;2469;51.540;7.364;2022-09-12T00:28:16;18.60;96.10
4908;DHT22;2469;51.540;7.364;2022-09-12T00:30:46;18.70;96.40
4908;DHT22;2469;51.540;7.364;2022-09-12T00:33:15;18.70;96.20
4908;DHT22;2469;51.540;7.364;2022-09-12T00:35:45;18.80;96.20
4908;DHT22;2469;51.540;7.364;2022-09-12T00:38:14;18.70;95.30
4908;DHT22;2469;51.540;7.364;2022-09-12T00:40:44;18.50;93.70
4908;DHT22;2469;51.540;7.364;2022-09-12T00:43:13;18.40;94.50
4908;DHT22;2469;51.540;7.364;2022-09-12T00:45:42;18.50;95.90
4908;DHT22;2469;51.540;7.364;2022-09-12T00:48:17;18.50;95.90
4908;DHT22;2469;51.540;7.364;2022-09-12T00:50:49;18.50;95.30
4908;DHT22;2469;51.540;7.364;2022-09-12T00:53:17;18.40;94.70
4908;DHT22;2469;51.540;7.364;2022-09-12T00:55:48;18.20;93.80
4908;DHT22;2469;51.540;7.364;2022-09-12T00:58:21;18.10;94.30
4908;DHT22;2469;51.540;7.364;2022-09-12T01:00:50;18.20;95.30
4908;DHT22;2469;51.540;7.364;2022-09-12T01:03:21;18.30;95.80
4908;DHT22;2469;51.540;7.364;2022-09-12T01:05:54;18.40;96.00
4908;DHT22;2469;51.540;7.364;2022-09-12T01:08:26;18.40;96.30
4908;DHT22;2469;51.540;7.364;2022-09-12T01:10:56;18.50;96.50
4908;DHT22;2469;51.540;7.364;2022-09-12T01:13:25;18.50;96.00
4908;DHT22;2469;51.540;7.364;2022-09-12T01:15:53;18.50;95.90
4908;DHT22;2469;51.540;7.364;2022-09-12T01:18:27;18.50;96.00
4908;DHT22;2469;51.540;7.364;2022-09-12T01:21:06;18.50;96.50
4908;DHT22;2469;51.540;7.364;2022-09-12T01:24:24;18.50;96.10
4908;DHT22;2469;51.540;7.364;2022-09-12T01:27:35;18.50;95.80
4908;DHT22;2469;51.540;7.364;2022-09-12T01:30:28;18.50;96.30
4908;DHT22;2469;51.540;7.364;2022-09-12T01:33:24;18.50;96.40
4908;DHT22;2469;51.540;7.364;2022-09-12T01:38:46;18.50;96.30
4908;DHT22;2469;51.540;7.364;2022-09-12T01:41:23;18.50;96.30
4908;DHT22;2469;51.540;7.364;2022-09-12T01:43:59;18.40;95.80
4908;DHT22;2469;51.540;7.364;2022-09-12T01:46:33;18.30;96.00
4908;DHT22;2469;51.540;7.364;2022-09-12T01:49:06;18.40;96.50
4908;DHT22;2469;51.540;7.364;2022-09-12T01:51:40;18.50;96.70
4908;DHT22;2469;51.540;7.364;2022-09-12T01:54:11;18.50;96.80
4908;DHT22;2469;51.540;7.364;2022-09-12T01:56:42;18.50;96.50
4908;DHT22;2469;51.540;7.364;2022-09-12T01:59:15;18.50;96.40
4908;DHT22;2469;51.540;7.364;2022-09-12T02:01:50;18.40;96.30
4908;DHT22;2469;51.540;7.364;2022-09-12T02:04:23;18.40;96.20
4908;DHT22;2469;51.540;7.364;2022-09-12T02:07:00;18.30;96.00
4908;DHT22;2469;51.540;7.364;2022-09-12T02:09:34;18.20;95.30
4908;DHT22;2469;51.540;7.364;2022-09-12T02:12:05;18.20;95.60
4908;DHT22;2469;51.540;7.364;2022-09-12T02:14:37;18.20;96.00
4908;DHT22;2469;51.540;7.364;2022-09-12T02:17:10;18.20;96.30
4908;DHT22;2469;51.540;7.364;2022-09-12T02:19:41;18.20;96.40
4908;DHT22;2469;51.540;7.364;2022-09-12T02:22:14;18.20;96.20
4908;DHT22;2469;51.540;7.364;2022-09-12T02:24:47;18.20;96.30
4908;DHT22;2469;51.540;7.364;2022-09-12T02:27:19;18.20;96.30
4908;DHT22;2469;51.540;7.364;2022-09-12T02:29:48;18.10;95.80
4908;DHT22;2469;51.540;7.364;2022-09-12T02:32:26;18.10;96.10
4908;DHT22;2469;51.540;7.364;2022-09-12T02:34:59;18.00;95.20
4908;DHT22;2469;51.540;7.364;2022-09-12T02:37:42;17.80;94.10
4908;DHT22;2469;51.540;7.364;2022-09-12T02:40:13;17.80;95.50
4908;DHT22;2469;51.540;7.364;2022-09-12T02:42:41;17.80;96.10
4908;DHT22;2469;51.540;7.364;2022-09-12T02:45:09;17.90;95.70
4908;DHT22;2469;51.540;7.364;2022-09-12T02:47:43;17.80;95.70
4908;DHT22;2469;51.540;7.364;2022-09-12T02:50:12;17.90;96.20
4908;DHT22;2469;51.540;7.364;2022-09-12T02:52:41;17.90;96.40
4908;DHT22;2469;51.540;7.364;2022-09-12T02:55:10;18.00;96.70
4908;DHT22;2469;51.540;7.364;2022-09-12T02:57:38;18.00;96.70
4908;DHT22;2469;51.540;7.364;2022-09-12T03:00:07;18.00;96.60
4908;DHT22;2469;51.540;7.364;2022-09-12T03:02:50;18.00;96.30
4908;DHT22;2469;51.540;7.364;2022-09-12T03:05:24;18.00;96.40
4908;DHT22;2469;51.540;7.364;2022-09-12T03:11:05;17.90;96.20
4908;DHT22;2469;51.540;7.364;2022-09-12T03:13:41;17.80;95.30
4908;DHT22;2469;51.540;7.364;2022-09-12T03:16:20;17.70;95.20
4908;DHT22;2469;51.540;7.364;2022-09-12T03:18:59;17.60;95.20
4908;DHT22;2469;51.540;7.364;2022-09-12T03:21:32;17.60;95.20
4908;DHT22;2469;51.540;7.364;2022-09-12T03:24:10;17.50;94.60
4908;DHT22;2469;51.540;7.364;2022-09-12T03:26:43;17.40;95.20
4908;DHT22;2469;51.540;7.364;2022-09-12T03:29:14;17.50;95.60
4908;DHT22;2469;51.540;7.364;2022-09-12T03:31:50;17.50;95.90
4908;DHT22;2469;51.540;7.364;2022-09-12T03:34:21;17.60;96.40
4908;DHT22;2469;51.540;7.364;2022-09-12T03:36:49;17.70;96.80
4908;DHT22;2469;51.540;7.364;2022-09-12T03:39:18;17.80;96.90
4908;DHT22;2469;51.540;7.364;2022-09-12T03:41:46;17.80;96.90
4908;DHT22;2469;51.540;7.364;2022-09-12T03:44:14;17.80;96.40
4908;DHT22;2469;51.540;7.364;2022-09-12T03:46:42;17.80;96.50
4908;DHT22;2469;51.540;7.364;2022-09-12T03:49:10;17.70;96.40
4908;DHT22;2469;51.540;7.364;2022-09-12T03:51:40;17.70;96.00
4908;DHT22;2469;51.540;7.364;2022-09-12T03:54:09;17.60;95.70
4908;DHT22;2469;51.540;7.364;2022-09-12T03:56:37;17.50;95.10
4908;DHT22;2469;51.540;7.364;2022-09-12T03:59:06;17.40;95.10
4908;DHT22;2469;51.540;7.364;2022-09-12T04:01:34;17.30;95.00
4908;DHT22;2469;51.540;7.364;2022-09-12T04:04:03;17.30;95.40
4908;DHT22;2469;51.540;7.364;2022-09-12T04:06:31;17.40;96.20
4908;DHT22;2469;51.540;7.364;2022-09-12T04:09:00;17.40;96.30
4908;DHT22;2469;51.540;7.364;2022-09-12T04:11:28;17.40;96.40
4908;DHT22;2469;51.540;7.364;2022-09-12T04:13:57;17.50;96.50
4908;DHT22;2469;51.540;7.364;2022-09-12T04:16:25;17.40;96.00
4908;DHT22;2469;51.540;7.364;2022-09-12T04:18:53;17.40;96.20
4908;DHT22;2469;51.540;7.364;2022-09-12T04:21:21;17.40;96.10
4908;DHT22;2469;51.540;7.364;2022-09-12T04:23:49;17.30;95.70
4908;DHT22;2469;51.540;7.364;2022-09-12T04:26:19;17.20;95.00
4908;DHT22;2469;51.540;7.364;2022-09-12T04:28:47;17.20;95.60
4908;DHT22;2469;51.540;7.364;2022-09-12T04:31:17;17.20;95.80
4908;DHT22;2469;51.540;7.364;2022-09-12T04:33:47;17.30;96.30
4908;DHT22;2469;51.540;7.364;2022-09-12T04:36:19;17.20;95.40
4908;DHT22;2469;51.540;7.364;2022-09-12T04:38:49;17.10;95.40
4908;DHT22;2469;51.540;7.364;2022-09-12T04:41:19;17.20;95.90
4908;DHT22;2469;51.540;7.364;2022-09-12T04:43:51;17.10;95.60
4908;DHT22;2469;51.540;7.364;2022-09-12T04:46:20;17.20;95.90
4908;DHT22;2469;51.540;7.364;2022-09-12T04:48:48;17.20;96.30
4908;DHT22;2469;51.540;7.364;2022-09-12T04:51:24;17.20;96.20
4908;DHT22;2469;51.540;7.364;2022-09-12T04:53:54;17.20;96.40
4908;DHT22;2469;51.540;7.364;2022-09-12T04:56:25;17.20;96.30
4908;DHT22;2469;51.540;7.364;2022-09-12T04:58:55;17.10;95.60
4908;DHT22;2469;51.540;7.364;2022-09-12T05:01:23;17.10;96.30
4908;DHT22;2469;51.540;7.364;2022-09-12T05:03:52;16.90;94.20
4908;DHT22;2469;51.540;7.364;2022-09-12T05:06:22;16.70;94.10
4908;DHT22;2469;51.540;7.364;2022-09-12T05:08:51;16.60;93.90
4908;DHT22;2469;51.540;7.364;2022-09-12T05:11:20;16.40;94.00
4908;DHT22;2469;51.540;7.364;2022-09-12T05:13:55;16.40;94.20
4908;DHT22;2469;51.540;7.364;2022-09-12T05:16:26;16.30;94.30
4908;DHT22;2469;51.540;7.364;2022-09-12T05:18:55;16.20;94.10
4908;DHT22;2469;51.540;7.364;2022-09-12T05:21:25;16.10;94.40
4908;DHT22;2469;51.540;7.364;2022-09-12T05:23:54;16.10;94.40
4908;DHT22;2469;51.540;7.364;2022-09-12T05:26:22;16.10;94.90
4908;DHT22;2469;51.540;7.364;2022-09-12T05:28:51;16.20;96.30
4908;DHT22;2469;51.540;7.364;2022-09-12T05:31:22;16.30;95.70
4908;DHT22;2469;51.540;7.364;2022-09-12T05:33:52;16.30;95.30
4908;DHT22;2469;51.540;7.364;2022-09-12T05:36:21;16.30;95.40
4908;DHT22;2469;51.540;7.364;2022-09-12T05:38:50;16.20;95.20
4908;DHT22;2469;51.540;7.364;2022-09-12T05:41:19;16.30;95.40
4908;DHT22;2469;51.540;7.364;2022-09-12T05:43:52;16.30;95.40
4908;DHT22;2469;51.540;7.364;2022-09-12T05:46:23;16.20;95.30
4908;DHT22;2469;51.540;7.364;2022-09-12T05:48:51;16.10;95.40
4908;DHT22;2469;51.540;7.364;2022-09-12T05:51:24;16.00;95.60
4908;DHT22;2469;51.540;7.364;2022-09-12T05:53:54;16.00;96.30
4908;DHT22;2469;51.540;7.364;2022-09-12T05:56:24;16.00;96.30
4908;DHT22;2469;51.540;7.364;2022-09-12T05:58:54;15.90;96.50
4908;DHT22;2469;51.540;7.364;2022-09-12T06:01:25;15.80;96.80
4908;DHT22;2469;51.540;7.364;2022-09-12T06:03:55;16.20;98.90
4908;DHT22;2469;51.540;7.364;2022-09-12T06:06:24;16.80;97.70
4908;DHT22;2469;51.540;7.364;2022-09-12T06:08:55;17.20;96.70
4908;DHT22;2469;51.540;7.364;2022-09-12T06:11:24;17.10;96.00
4908;DHT22;2469;51.540;7.364;2022-09-12T06:13:53;16.80;96.60
4908;DHT22;2469;51.540;7.364;2022-09-12T06:16:24;16.60;97.40
4908;DHT22;2469;51.540;7.364;2022-09-12T06:18:54;16.40;97.70
4908;DHT22;2469;51.540;7.364;2022-09-12T06:21:23;16.20;98.60
4908;DHT22;2469;51.540;7.364;2022-09-12T06:23:54;16.10;99.40
4908;DHT22;2469;51.540;7.364;2022-09-12T06:26:22;16.40;98.90
4908;DHT22;2469;51.540;7.364;2022-09-12T06:28:52;16.70;98.30
4908;DHT22;2469;51.540;7.364;2022-09-12T06:31:22;16.90;97.80
4908;DHT22;2469;51.540;7.364;2022-09-12T06:33:53;17.00;97.80
4908;DHT22;2469;51.540;7.364;2022-09-12T06:36:23;17.10;97.60
4908;DHT22;2469;51.540;7.364;2022-09-12T06:38:55;17.20;97.40
4908;DHT22;2469;51.540;7.364;2022-09-12T06:41:24;17.30;97.40
4908;DHT22;2469;51.540;7.364;2022-09-12T06:43:52;17.30;97.30
4908;DHT22;2469;51.540;7.364;2022-09-12T06:46:21;17.40;97.20
4908;DHT22;2469;51.540;7.364;2022-09-12T06:48:49;17.40;97.00
4908;DHT22;2469;51.540;7.364;2022-09-12T06:51:18;17.50;97.00
4908;DHT22;2469;51.540;7.364;2022-09-12T06:53:47;17.60;97.00
4908;DHT22;2469;51.540;7.364;2022-09-12T06:56:17;17.60;96.90
4908;DHT22;2469;51.540;7.364;2022-09-12T06:58:46;17.60;97.30
4908;DHT22;2469;51.540;7.364;2022-09-12T07:01:16;17.60;97.80
4908;DHT22;2469;51.540;7.364;2022-09-12T07:03:47;17.50;97.60
4908;DHT22;2469;51.540;7.364;2022-09-12T07:06:18;17.50;98.60
4908;DHT22;2469;51.540;7.364;2022-09-12T07:08:46;17.50;99.50
4908;DHT22;2469;51.540;7.364;2022-09-12T07:11:16;17.40;99.90
4908;DHT22;2469;51.540;7.364;2022-09-12T07:13:46;17.40;99.90
4908;DHT22;2469;51.540;7.364;2022-09-12T07:16:15;17.30;99.90
4908;DHT22;2469;51.540;7.364;2022-09-12T07:18:49;17.40;99.60
4908;DHT22;2469;51.540;7.364;2022-09-12T07:21:19;17.60;98.10
4908;DHT22;2469;51.540;7.364;2022-09-12T07:23:47;17.70;99.30
4908;DHT22;2469;51.540;7.364;2022-09-12T07:26:17;17.70;99.90
4908;DHT22;2469;51.540;7.364;2022-09-12T07:28:50;17.70;99.70
4908;DHT22;2469;51.540;7.364;2022-09-12T07:31:19;17.70;99.90
4908;DHT22;2469;51.540;7.364;2022-09-12T07:33:48;17.80;99.00
4908;DHT22;2469;51.540;7.364;2022-09-12T07:36:23;17.80;99.40
4908;DHT22;2469;51.540;7.364;2022-09-12T07:38:55;17.80;99.10
4908;DHT22;2469;51.540;7.364;2022-09-12T07:41:25;17.90;99.90
4908;DHT22;2469;51.540;7.364;2022-09-12T07:43:54;17.90;99.90
4908;DHT22;2469;51.540;7.364;2022-09-12T07:46:23;17.90;99.90
4908;DHT22;2469;51.540;7.364;2022-09-12T07:48:52;17.90;99.90
4908;DHT22;2469;51.540;7.364;2022-09-12T07:51:22;17.90;99.90
4908;DHT22;2469;51.540;7.364;2022-09-12T07:53:50;17.90;98.70
4908;DHT22;2469;51.540;7.364;2022-09-12T07:56:19;18.00;99.20
4908;DHT22;2469;51.540;7.364;2022-09-12T07:58:54;18.10;98.70
4908;DHT22;2469;51.540;7.364;2022-09-12T08:01:23;18.10;99.90
4908;DHT22;2469;51.540;7.364;2022-09-12T08:03:54;18.10;99.90
4908;DHT22;2469;51.540;7.364;2022-09-12T08:06:25;18.00;99.90
4908;DHT22;2469;51.540;7.364;2022-09-12T08:08:55;17.90;99.90
4908;DHT22;2469;51.540;7.364;2022-09-12T08:11:24;17.90;99.90
4908;DHT22;2469;51.540;7.364;2022-09-12T08:13:53;17.90;99.90
4908;DHT22;2469;51.540;7.364;2022-09-12T08:16:24;18.00;99.60
4908;DHT22;2469;51.540;7.364;2022-09-12T08:18:52;18.10;99.20
4908;DHT22;2469;51.540;7.364;2022-09-12T08:21:23;18.10;99.00
4908;DHT22;2469;51.540;7.364;2022-09-12T08:23:52;18.20;98.50
4908;DHT22;2469;51.540;7.364;2022-09-12T08:26:21;18.30;97.80
4908;DHT22;2469;51.540;7.364;2022-09-12T08:28:50;18.40;97.60
4908;DHT22;2469;51.540;7.364;2022-09-12T08:31:20;18.50;97.30
4908;DHT22;2469;51.540;7.364;2022-09-12T08:33:48;18.60;97.10
4908;DHT22;2469;51.540;7.364;2022-09-12T08:36:17;18.70;97.00
4908;DHT22;2469;51.540;7.364;2022-09-12T08:38:49;18.80;96.90
4908;DHT22;2469;51.540;7.364;2022-09-12T08:41:24;18.80;96.70
4908;DHT22;2469;51.540;7.364;2022-09-12T08:44:17;18.90;96.80
4908;DHT22;2469;51.540;7.364;2022-09-12T08:46:57;18.90;96.60
4908;DHT22;2469;51.540;7.364;2022-09-12T08:49:31;18.90;96.50
4908;DHT22;2469;51.540;7.364;2022-09-12T08:52:04;19.00;96.40
4908;DHT22;2469;51.540;7.364;2022-09-12T08:54:35;19.00;97.40
4908;DHT22;2469;51.540;7.364;2022-09-12T08:57:04;19.00;96.60
4908;DHT22;2469;51.540;7.364;2022-09-12T08:59:37;19.00;96.60
4908;DHT22;2469;51.540;7.364;2022-09-12T09:02:22;19.10;96.50
4908;DHT22;2469;51.540;7.364;2022-09-12T09:04:57;19.10;97.20
4908;DHT22;2469;51.540;7.364;2022-09-12T09:07:51;19.10;96.60
4908;DHT22;2469;51.540;7.364;2022-09-12T09:10:29;19.10;98.90
4908;DHT22;2469;51.540;7.364;2022-09-12T09:13:04;19.10;99.90
4908;DHT22;2469;51.540;7.364;2022-09-12T09:15:42;19.10;99.90
4908;DHT22;2469;51.540;7.364;2022-09-12T09:18:18;19.10;99.40
4908;DHT22;2469;51.540;7.364;2022-09-12T09:20:51;19.20;97.40
4908;DHT22;2469;51.540;7.364;2022-09-12T09:23:23;19.20;97.40
4908;DHT22;2469;51.540;7.364;2022-09-12T09:25:58;19.30;97.20
4908;DHT22;2469;51.540;7.364;2022-09-12T09:28:33;19.40;96.90
4908;DHT22;2469;51.540;7.364;2022-09-12T09:31:03;19.60;96.50
4908;DHT22;2469;51.540;7.364;2022-09-12T09:33:33;19.70;96.40
4908;DHT22;2469;51.540;7.364;2022-09-12T09:36:06;19.80;97.50
4908;DHT22;2469;51.540;7.364;2022-09-12T09:38:44;19.80;96.40
4908;DHT22;2469;51.540;7.364;2022-09-12T09:41:32;19.80;96.80
4908;DHT22;2469;51.540;7.364;2022-09-12T09:44:02;19.90;96.10
4908;DHT22;2469;51.540;7.364;2022-09-12T09:46:31;20.10;95.90
4908;DHT22;2469;51.540;7.364;2022-09-12T09:49:00;20.20;95.80
4908;DHT22;2469;51.540;7.364;2022-09-12T09:51:34;20.20;96.00
4908;DHT22;2469;51.540;7.364;2022-09-12T09:54:08;20.40;95.60
4908;DHT22;2469;51.540;7.364;2022-09-12T09:56:40;20.50;95.50
4908;DHT22;2469;51.540;7.364;2022-09-12T09:59:10;20.50;95.30
4908;DHT22;2469;51.540;7.364;2022-09-12T10:01:44;20.70;95.20
4908;DHT22;2469;51.540;7.364;2022-09-12T10:04:20;20.70;95.10
4908;DHT22;2469;51.540;7.364;2022-09-12T10:06:51;20.70;95.00
4908;DHT22;2469;51.540;7.364;2022-09-12T10:09:23;20.70;95.40
4908;DHT22;2469;51.540;7.364;2022-09-12T10:11:53;20.60;95.20
4908;DHT22;2469;51.540;7.364;2022-09-12T10:14:33;20.60;96.30
4908;DHT22;2469;51.540;7.364;2022-09-12T10:17:24;20.60;95.40
4908;DHT22;2469;51.540;7.364;2022-09-12T10:19:57;20.70;95.50
4908;DHT22;2469;51.540;7.364;2022-09-12T10:22:46;20.60;95.60
4908;DHT22;2469;51.540;7.364;2022-09-12T10:25:17;20.70;95.60
4908;DHT22;2469;51.540;7.364;2022-09-12T10:27:52;20.70;95.70
4908;DHT22;2469;51.540;7.364;2022-09-12T10:30:22;20.80;95.30
4908;DHT22;2469;51.540;7.364;2022-09-12T10:32:51;20.80;95.20
4908;DHT22;2469;51.540;7.364;2022-09-12T10:35:23;20.80;95.10
4908;DHT22;2469;51.540;7.364;2022-09-12T10:37:53;21.00;94.90
4908;DHT22;2469;51.540;7.364;2022-09-12T10:40:24;21.10;94.70
4908;DHT22;2469;51.540;7.364;2022-09-12T10:42:56;21.20;94.50
4908;DHT22;2469;51.540;7.364;2022-09-12T10:45:27;21.50;94.60
4908;DHT22;2469;51.540;7.364;2022-09-12T10:47:57;21.60;95.00
4908;DHT22;2469;51.540;7.364;2022-09-12T10:50:34;21.80;94.90
4908;DHT22;2469;51.540;7.364;2022-09-12T10:53:15;21.90;94.60
4908;DHT22;2469;51.540;7.364;2022-09-12T10:56:02;21.90;94.30
4908;DHT22;2469;51.540;7.364;2022-09-12T10:58:53;21.80;94.90
4908;DHT22;2469;51.540;7.364;2022-09-12T11:01:39;21.90;94.90
4908;DHT22;2469;51.540;7.364;2022-09-12T11:04:33;22.00;94.80
4908;DHT22;2469;51.540;7.364;2022-09-12T11:07:20;22.10;94.60
4908;DHT22;2469;51.540;7.364;2022-09-12T11:09:53;22.20;94.40
4908;DHT22;2469;51.540;7.364;2022-09-12T11:12:31;22.10;94.10
4908;DHT22;2469;51.540;7.364;2022-09-12T11:15:21;22.10;93.90
4908;DHT22;2469;51.540;7.364;2022-09-12T11:17:55;22.20;94.50
4908;DHT22;2469;51.540;7.364;2022-09-12T11:20:37;22.30;93.90
4908;DHT22;2469;51.540;7.364;2022-09-12T11:26:36;22.60;93.30
4908;DHT22;2469;51.540;7.364;2022-09-12T11:29:16;22.60;92.70
4908;DHT22;2469;51.540;7.364;2022-09-12T11:31:59;22.60;92.90
4908;DHT22;2469;51.540;7.364;2022-09-12T11:34:36;22.60;92.90
4908;DHT22;2469;51.540;7.364;2022-09-12T11:37:19;22.60;93.10
4908;DHT22;2469;51.540;7.364;2022-09-12T11:39:54;22.70;92.70
4908;DHT22;2469;51.540;7.364;2022-09-12T11:42:28;22.80;92.40
4908;DHT22;2469;51.540;7.364;2022-09-12T11:45:01;22.80;92.60
4908;DHT22;2469;51.540;7.364;2022-09-12T11:47:34;22.90;92.50
4908;DHT22;2469;51.540;7.364;2022-09-12T11:50:05;23.00;92.60
4908;DHT22;2469;51.540;7.364;2022-09-12T11:52:42;23.00;92.30
4908;DHT22;2469;51.540;7.364;2022-09-12T11:55:15;23.00;92.30
4908;DHT22;2469;51.540;7.364;2022-09-12T11:57:48;23.20;91.80
4908;DHT22;2469;51.540;7.364;2022-09-12T12:00:19;23.30;92.20
4908;DHT22;2469;51.540;7.364;2022-09-12T12:02:56;23.30;92.30
4908;DHT22;2469;51.540;7.364;2022-09-12T12:05:27;23.20;91.50
4908;DHT22;2469;51.540;7.364;2022-09-12T12:07:57;23.30;91.70
4908;DHT22;2469;51.540;7.364;2022-09-12T12:10:31;23.30;90.90
4908;DHT22;2469;51.540;7.364;2022-09-12T12:13:02;23.40;91.20
4908;DHT22;2469;51.540;7.364;2022-09-12T12:15:31;23.40;90.60
4908;DHT22;2469;51.540;7.364;2022-09-12T12:18:06;23.40;90.10
4908;DHT22;2469;51.540;7.364;2022-09-12T12:20:34;23.40;89.50
4908;DHT22;2469;51.540;7.364;2022-09-12T12:23:02;23.40;89.70
4908;DHT22;2469;51.540;7.364;2022-09-12T12:25:39;23.50;89.60
4908;DHT22;2469;51.540;7.364;2022-09-12T12:28:08;23.70;89.50
4908;DHT22;2469;51.540;7.364;2022-09-12T12:31:00;23.80;88.90
4908;DHT22;2469;51.540;7.364;2022-09-12T12:33:59;23.80;86.70
4908;DHT22;2469;51.540;7.364;2022-09-12T12:36:34;23.80;87.70
4908;DHT22;2469;51.540;7.364;2022-09-12T12:46:02;24.00;87.60
4908;DHT22;2469;51.540;7.364;2022-09-12T12:48:55;24.20;87.40
4908;DHT22;2469;51.540;7.364;2022-09-12T12:51:43;24.20;85.90
4908;DHT22;2469;51.540;7.364;2022-09-12T12:54:33;24.10;86.40
4908;DHT22;2469;51.540;7.364;2022-09-12T12:57:31;24.00;85.00
4908;DHT22;2469;51.540;7.364;2022-09-12T13:00:05;24.00;86.10
4908;DHT22;2469;51.540;7.364;2022-09-12T13:02:38;24.20;84.90
4908;DHT22;2469;51.540;7.364;2022-09-12T13:05:19;24.30;84.10
4908;DHT22;2469;51.540;7.364;2022-09-12T13:07:53;24.30;84.20
4908;DHT22;2469;51.540;7.364;2022-09-12T13:10:24;24.40;82.50
4908;DHT22;2469;51.540;7.364;2022-09-12T13:12:55;24.30;84.10
4908;DHT22;2469;51.540;7.364;2022-09-12T13:18:37;24.50;83.00
4908;DHT22;2469;51.540;7.364;2022-09-12T13:21:11;24.50;82.70
4908;DHT22;2469;51.540;7.364;2022-09-12T13:23:40;24.50;82.40
4908;DHT22;2469;51.540;7.364;2022-09-12T13:26:10;24.50;82.10
4908;DHT22;2469;51.540;7.364;2022-09-12T13:28:39;24.50;82.20
4908;DHT22;2469;51.540;7.364;2022-09-12T13:31:13;24.40;78.30
4908;DHT22;2469;51.540;7.364;2022-09-12T13:33:45;24.50;82.50
4908;DHT22;2469;51.540;7.364;2022-09-12T13:36:27;24.50;82.30
4908;DHT22;2469;51.540;7.364;2022-09-12T13:39:16;24.30;81.50
4908;DHT22;2469;51.540;7.364;2022-09-12T13:42:34;24.10;80.50
4908;DHT22;2469;51.540;7.364;2022-09-12T13:45:09;23.90;80.10
4908;DHT22;2469;51.540;7.364;2022-09-12T13:47:40;24.10;84.60
4908;DHT22;2469;51.540;7.364;2022-09-12T13:50:16;24.30;84.50
4908;DHT22;2469;51.540;7.364;2022-09-12T13:52:50;24.70;83.90
4908;DHT22;2469;51.540;7.364;2022-09-12T13:55:28;24.80;83.30
4908;DHT22;2469;51.540;7.364;2022-09-12T13:57:59;24.80;83.20
4908;DHT22;2469;51.540;7.364;2022-09-12T14:00:28;24.90;83.20
4908;DHT22;2469;51.540;7.364;2022-09-12T14:02:58;25.10;83.30
4908;DHT22;2469;51.540;7.364;2022-09-12T14:05:46;25.20;82.70
4908;DHT22;2469;51.540;7.364;2022-09-12T14:08:21;25.30;81.90
4908;DHT22;2469;51.540;7.364;2022-09-12T14:10:50;25.40;81.80
4908;DHT22;2469;51.540;7.364;2022-09-12T14:13:20;25.50;81.60
4908;DHT22;2469;51.540;7.364;2022-09-12T14:15:50;25.40;80.00
4908;DHT22;2469;51.540;7.364;2022-09-12T14:18:22;25.30;77.50
4908;DHT22;2469;51.540;7.364;2022-09-12T14:20:51;25.00;76.90
4908;DHT22;2469;51.540;7.364;2022-09-12T14:23:27;25.10;79.00
4908;DHT22;2469;51.540;7.364;2022-09-12T14:25:57;25.30;79.90
4908;DHT22;2469;51.540;7.364;2022-09-12T14:28:26;25.40;80.00
4908;DHT22;2469;51.540;7.364;2022-09-12T14:30:57;25.40;79.80
4908;DHT22;2469;51.540;7.364;2022-09-12T14:33:26;25.40;80.60
4908;DHT22;2469;51.540;7.364;2022-09-12T14:36:08;25.50;80.70
4908;DHT22;2469;51.540;7.364;2022-09-12T14:38:42;25.80;80.70
4908;DHT22;2469;51.540;7.364;2022-09-12T14:41:12;25.70;76.30
4908;DHT22;2469;51.540;7.364;2022-09-12T14:43:43;25.60;80.20
4908;DHT22;2469;51.540;7.364;2022-09-12T14:46:17;25.50;81.30
4908;DHT22;2469;51.540;7.364;2022-09-12T14:48:49;25.50;81.40
4908;DHT22;2469;51.540;7.364;2022-09-12T14:51:24;25.60;81.50
4908;DHT22;2469;51.540;7.364;2022-09-12T14:53:54;25.80;81.40
4908;DHT22;2469;51.540;7.364;2022-09-12T14:56:36;25.90;81.40
4908;DHT22;2469;51.540;7.364;2022-09-12T14:59:26;25.90;81.60
4908;DHT22;2469;51.540;7.364;2022-09-12T15:02:13;26.00;80.60
4908;DHT22;2469;51.540;7.364;2022-09-12T15:04:45;26.00;81.00
4908;DHT22;2469;51.540;7.364;2022-09-12T15:07:14;25.90;74.60
4908;DHT22;2469;51.540;7.364;2022-09-12T15:09:43;25.80;80.40
4908;DHT22;2469;51.540;7.364;2022-09-12T15:12:13;25.70;81.00
4908;DHT22;2469;51.540;7.364;2022-09-12T15:14:41;25.80;80.30
4908;DHT22;2469;51.540;7.364;2022-09-12T15:17:08;25.80;81.70
4908;DHT22;2469;51.540;7.364;2022-09-12T15:19:36;25.80;79.70
4908;DHT22;2469;51.540;7.364;2022-09-12T15:22:04;25.80;73.70
4908;DHT22;2469;51.540;7.364;2022-09-12T15:24:32;25.90;81.00
4908;DHT22;2469;51.540;7.364;2022-09-12T15:27:01;26.00;81.30
4908;DHT22;2469;51.540;7.364;2022-09-12T15:29:29;26.20;81.00
4908;DHT22;2469;51.540;7.364;2022-09-12T15:31:57;26.30;80.90
4908;DHT22;2469;51.540;7.364;2022-09-12T15:34:25;26.30;80.60
4908;DHT22;2469;51.540;7.364;2022-09-12T15:36:53;26.40;80.50
4908;DHT22;2469;51.540;7.364;2022-09-12T15:39:21;26.40;80.30
4908;DHT22;2469;51.540;7.364;2022-09-12T15:41:49;26.50;80.30
4908;DHT22;2469;51.540;7.364;2022-09-12T15:44:18;26.50;80.20
4908;DHT22;2469;51.540;7.364;2022-09-12T15:46:46;26.40;80.20
4908;DHT22;2469;51.540;7.364;2022-09-12T15:49:14;26.30;76.70
4908;DHT22;2469;51.540;7.364;2022-09-12T15:51:42;26.10;74.30
4908;DHT22;2469;51.540;7.364;2022-09-12T15:54:12;26.00;74.60
4908;DHT22;2469;51.540;7.364;2022-09-12T15:56:41;26.00;78.60
4908;DHT22;2469;51.540;7.364;2022-09-12T15:59:09;26.20;78.20
4908;DHT22;2469;51.540;7.364;2022-09-12T16:01:38;26.30;78.20
4908;DHT22;2469;51.540;7.364;2022-09-12T16:04:18;26.30;77.70
4908;DHT22;2469;51.540;7.364;2022-09-12T16:06:47;26.30;78.60
4908;DHT22;2469;51.540;7.364;2022-09-12T16:09:15;26.30;78.60
4908;DHT22;2469;51.540;7.364;2022-09-12T16:11:43;26.30;78.80
4908;DHT22;2469;51.540;7.364;2022-09-12T16:14:12;26.30;78.90
4908;DHT22;2469;51.540;7.364;2022-09-12T16:16:42;26.50;78.80
4908;DHT22;2469;51.540;7.364;2022-09-12T16:19:10;26.50;78.70
4908;DHT22;2469;51.540;7.364;2022-09-12T16:21:38;26.50;78.80
4908;DHT22;2469;51.540;7.364;2022-09-12T16:24:06;26.60;78.70
4908;DHT22;2469;51.540;7.364;2022-09-12T16:26:34;26.50;78.70
4908;DHT22;2469;51.540;7.364;2022-09-12T16:29:02;26.40;78.40
4908;DHT22;2469;51.540;7.364;2022-09-12T16:31:30;26.30;79.30
4908;DHT22;2469;51.540;7.364;2022-09-12T16:34:00;26.30;79.70
4908;DHT22;2469;51.540;7.364;2022-09-12T16:36:27;26.30;78.70
4908;DHT22;2469;51.540;7.364;2022-09-12T16:38:55;26.20;79.90
4908;DHT22;2469;51.540;7.364;2022-09-12T16:41:24;26.20;80.10
4908;DHT22;2469;51.540;7.364;2022-09-12T16:43:53;26.20;80.00
4908;DHT22;2469;51.540;7.364;2022-09-12T16:46:22;26.20;80.20
4908;DHT22;2469;51.540;7.364;2022-09-12T16:48:51;26.20;80.40
4908;DHT22;2469;51.540;7.364;2022-09-12T16:51:23;26.20;80.50
4908;DHT22;2469;51.540;7.364;2022-09-12T16:53:52;26.20;80.50
4908;DHT22;2469;51.540;7.364;2022-09-12T16:56:21;26.20;80.10